createdAt,value
2019-05-14T00:01:31.299Z,3.40
2019-05-14T00:04:02.076Z,3.40
2019-05-14T00:06:33.161Z,3.40
2019-05-14T00:09:06.778Z,3.40
2019-05-14T00:11:37.572Z,3.40
2019-05-14T00:14:08.513Z,3.30
2019-05-14T00:16:39.403Z,3.40
2019-05-14T00:19:11.824Z,3.40
2019-05-14T00:21:42.595Z,3.30
2019-05-14T00:24:13.311Z,3.20
2019-05-14T00:26:44.083Z,3.20
2019-05-14T00:29:16.164Z,2.90
2019-05-14T00:31:46.902Z,2.90
2019-05-14T00:34:17.720Z,2.80
2019-05-14T00:36:48.450Z,2.60
2019-05-14T00:39:21.329Z,2.70
2019-05-14T00:41:52.113Z,2.70
2019-05-14T00:44:23.036Z,2.60
2019-05-14T00:46:54.906Z,2.50
2019-05-14T00:49:25.833Z,2.50
2019-05-14T00:51:56.672Z,2.50
2019-05-14T00:54:27.482Z,2.40
2019-05-14T00:57:01.444Z,2.30
2019-05-14T00:59:32.351Z,2.30
2019-05-14T01:02:03.295Z,2.30
2019-05-14T01:04:34.327Z,2.30
2019-05-14T01:07:05.031Z,2.30
2019-05-14T01:09:36.372Z,2.30
2019-05-14T01:12:07.707Z,2.20
2019-05-14T01:14:38.430Z,2.00
2019-05-14T01:17:11.282Z,2.10
2019-05-14T01:19:42.680Z,2.10
2019-05-14T01:22:13.550Z,1.90
2019-05-14T01:24:44.394Z,2.00
2019-05-14T01:27:16.757Z,2.00
2019-05-14T01:29:47.760Z,2.00
2019-05-14T01:32:18.533Z,2.00
2019-05-14T01:34:49.403Z,1.80
2019-05-14T01:37:21.986Z,1.70
2019-05-14T01:39:52.884Z,1.80
2019-05-14T01:42:23.679Z,1.60
2019-05-14T01:44:54.545Z,1.70
2019-05-14T01:47:27.238Z,1.70
2019-05-14T01:49:57.980Z,1.60
2019-05-14T01:52:28.758Z,1.50
2019-05-14T01:55:01.993Z,1.60
2019-05-14T01:57:32.068Z,1.50
2019-05-14T02:00:02.944Z,1.40
2019-05-14T02:02:33.980Z,1.40
2019-05-14T02:05:07.047Z,1.40
2019-05-14T02:07:39.135Z,1.40
2019-05-14T02:10:11.616Z,1.50
2019-05-14T02:12:42.577Z,1.40
2019-05-14T02:15:15.522Z,1.40
2019-05-14T02:17:48.521Z,1.30
2019-05-14T02:20:21.546Z,1.20
2019-05-14T02:22:52.532Z,1.20
2019-05-14T02:25:23.406Z,1.10
2019-05-14T02:27:55.637Z,1.10
2019-05-14T02:30:40.826Z,1.10
2019-05-14T02:32:59.618Z,1.10
2019-05-14T02:35:30.604Z,1.20
2019-05-14T02:38:02.617Z,1.10
2019-05-14T02:40:33.471Z,1.00
2019-05-14T02:43:04.546Z,1.00
2019-05-14T02:45:35.302Z,1.00
2019-05-14T02:48:09.438Z,1.00
2019-05-14T02:50:39.688Z,1.00
2019-05-14T02:53:10.875Z,0.90
2019-05-14T02:55:41.650Z,1.00
2019-05-14T02:58:12.493Z,0.80
2019-05-14T03:00:43.220Z,0.80
2019-05-14T03:03:14.007Z,0.80
2019-05-14T03:05:45.405Z,0.70
2019-05-14T03:08:22.619Z,0.80
2019-05-14T03:10:54.489Z,0.80
2019-05-14T03:13:25.313Z,0.80
2019-05-14T03:15:59.049Z,0.70
2019-05-14T03:18:30.052Z,0.70
2019-05-14T03:21:01.406Z,0.70
2019-05-14T03:23:32.409Z,0.70
2019-05-14T03:26:03.177Z,0.60
2019-05-14T03:28:34.115Z,0.60
2019-05-14T03:31:05.160Z,0.60
2019-05-14T03:33:35.992Z,0.70
2019-05-14T03:36:11.396Z,0.70
2019-05-14T03:38:40.429Z,0.70
2019-05-14T03:41:14.060Z,0.70
2019-05-14T03:43:43.828Z,0.60
2019-05-14T03:46:14.643Z,0.70
2019-05-14T03:48:49.237Z,0.70
2019-05-14T03:51:20.449Z,0.80
2019-05-14T03:54:01.158Z,0.90
2019-05-14T04:01:29.907Z,1.40
2019-05-14T04:04:00.942Z,1.50
2019-05-14T04:06:32.481Z,1.60
2019-05-14T04:09:09.467Z,1.80
2019-05-14T04:11:40.737Z,2.00
2019-05-14T04:14:13.910Z,2.20
2019-05-14T04:17:01.406Z,2.20
2019-05-14T04:19:21.745Z,2.30
2019-05-14T04:21:53.297Z,2.40
2019-05-14T04:24:25.495Z,2.70
2019-05-14T04:27:07.514Z,2.90
2019-05-14T04:29:31.325Z,3.20
2019-05-14T04:32:03.845Z,3.40
2019-05-14T04:34:35.025Z,3.80
2019-05-14T04:37:09.782Z,4.20
2019-05-14T04:39:40.543Z,4.20
2019-05-14T04:42:11.355Z,4.30
2019-05-14T04:44:42.149Z,4.30
2019-05-14T04:47:27.954Z,4.50
2019-05-14T04:49:50.203Z,4.60
2019-05-14T04:52:20.458Z,4.80
2019-05-14T04:54:52.723Z,4.80
2019-05-14T04:57:25.625Z,4.80
2019-05-14T04:59:59.630Z,4.70
2019-05-14T05:02:30.428Z,4.80
2019-05-14T05:05:01.918Z,5.00
2019-05-14T05:10:03.332Z,5.80
2019-05-14T05:12:34.183Z,6.30
2019-05-14T05:15:08.524Z,6.90
2019-05-14T05:17:47.153Z,7.80
2019-05-14T05:20:12.604Z,8.30
2019-05-14T05:22:43.359Z,9.00
2019-05-14T05:25:14.251Z,9.70
2019-05-14T05:27:45.108Z,10.30
2019-05-14T05:30:16.188Z,11.00
2019-05-14T05:32:49.250Z,11.60
2019-05-14T05:35:20.557Z,12.20
2019-05-14T05:37:51.523Z,12.40
2019-05-14T05:40:24.030Z,12.30
2019-05-14T05:42:54.832Z,13.00
2019-05-14T05:45:25.566Z,13.50
2019-05-14T05:48:01.003Z,13.30
2019-05-14T05:50:28.915Z,13.40
2019-05-14T05:52:59.880Z,13.80
2019-05-14T05:55:30.657Z,13.90
2019-05-14T05:58:01.642Z,14.50
2019-05-14T06:00:35.418Z,13.90
2019-05-14T06:03:10.248Z,14.60
2019-05-14T06:05:39.108Z,15.40
2019-05-14T06:08:11.527Z,15.80
2019-05-14T06:10:42.313Z,15.50
2019-05-14T06:13:14.070Z,15.90
2019-05-14T06:15:49.533Z,15.50
2019-05-14T06:18:22.110Z,16.40
2019-05-14T06:20:53.403Z,16.80
2019-05-14T06:23:24.374Z,17.40
2019-05-14T06:25:55.014Z,16.60
2019-05-14T06:28:32.175Z,17.70
2019-05-14T06:30:59.130Z,18.40
2019-05-14T06:33:29.937Z,17.70
2019-05-14T06:36:00.763Z,17.90
2019-05-14T06:38:32.730Z,19.10
2019-05-14T06:41:03.474Z,18.70
2019-05-14T06:43:34.300Z,17.80
2019-05-14T06:46:05.202Z,17.10
2019-05-14T06:48:39.308Z,17.90
2019-05-14T06:51:09.401Z,19.20
2019-05-14T06:53:40.337Z,19.60
2019-05-14T06:56:11.919Z,20.20
2019-05-14T06:58:49.198Z,20.80
2019-05-14T07:01:21.409Z,21.10
2019-05-14T07:03:52.281Z,21.50
2019-05-14T07:06:23.083Z,21.00
2019-05-14T07:08:55.329Z,20.60
2019-05-14T07:11:26.196Z,20.90
2019-05-14T07:13:58.073Z,20.70
2019-05-14T07:16:29.076Z,19.90
2019-05-14T07:19:01.113Z,19.50
2019-05-14T07:21:31.859Z,18.20
2019-05-14T07:24:02.720Z,17.50
2019-05-14T07:26:33.691Z,17.80
2019-05-14T07:29:11.253Z,17.40
2019-05-14T07:31:38.635Z,19.60
2019-05-14T07:34:10.601Z,21.10
2019-05-14T07:36:41.486Z,20.90
2019-05-14T07:39:13.645Z,17.70
2019-05-14T07:41:44.559Z,16.20
2019-05-14T07:44:15.431Z,15.90
2019-05-14T07:46:48.168Z,16.60
2019-05-14T07:49:18.616Z,17.60
2019-05-14T07:51:49.331Z,18.60
2019-05-14T07:54:20.277Z,20.00
2019-05-14T07:56:52.901Z,20.30
2019-05-14T07:59:24.551Z,19.10
2019-05-14T08:01:55.300Z,17.40
2019-05-14T08:04:26.174Z,16.50
2019-05-14T08:06:58.296Z,15.90
2019-05-14T08:09:30.695Z,15.20
2019-05-14T08:12:01.527Z,15.30
2019-05-14T08:14:42.614Z,15.00
2019-05-14T08:17:05.032Z,14.60
2019-05-14T08:19:38.637Z,14.30
2019-05-14T08:22:09.799Z,14.70
2019-05-14T08:24:40.773Z,15.40
2019-05-14T08:27:11.530Z,15.00
2019-05-14T08:29:42.603Z,15.70
2019-05-14T08:32:13.513Z,15.60
2019-05-14T08:34:44.339Z,17.60
2019-05-14T08:37:15.137Z,17.90
2019-05-14T08:39:48.593Z,18.50
2019-05-14T08:42:19.679Z,18.00
2019-05-14T08:44:52.288Z,17.30
2019-05-14T08:47:24.118Z,16.20
2019-05-14T08:49:54.919Z,15.80
2019-05-14T08:52:28.578Z,16.70
2019-05-14T08:55:07.289Z,17.30
2019-05-14T08:57:30.858Z,18.50
2019-05-14T09:00:04.189Z,17.90
2019-05-14T09:02:35.926Z,17.50
2019-05-14T09:05:10.231Z,17.90
2019-05-14T09:07:40.101Z,19.20
2019-05-14T09:10:12.145Z,19.50
2019-05-14T09:12:44.629Z,18.40
2019-05-14T09:15:15.504Z,18.20
2019-05-14T09:17:48.535Z,17.40
2019-05-14T09:20:19.144Z,17.00
2019-05-14T09:22:49.974Z,16.40
2019-05-14T09:25:20.916Z,16.20
2019-05-14T09:27:51.757Z,15.70
2019-05-14T09:30:22.890Z,16.20
2019-05-14T09:32:53.864Z,15.30
2019-05-14T09:35:25.229Z,16.20
2019-05-14T09:37:59.267Z,16.80
2019-05-14T09:40:29.852Z,16.80
2019-05-14T09:43:02.326Z,16.70
2019-05-14T09:45:33.467Z,16.80
2019-05-14T09:48:04.744Z,17.00
2019-05-14T09:50:38.135Z,18.60
2019-05-14T09:53:09.857Z,19.40
2019-05-14T09:55:41.614Z,19.80
2019-05-14T09:58:13.039Z,19.50
2019-05-14T10:00:45.360Z,20.10
2019-05-14T10:03:19.251Z,21.00
2019-05-14T10:05:50.994Z,21.00
2019-05-14T10:08:22.148Z,22.60
2019-05-14T10:10:55.033Z,21.80
2019-05-14T10:13:28.157Z,22.10
2019-05-14T10:15:59.062Z,24.80
2019-05-14T10:18:30.508Z,25.80
2019-05-14T10:21:02.062Z,23.50
2019-05-14T10:23:33.308Z,21.40
2019-05-14T10:26:04.347Z,20.80
2019-05-14T10:28:35.054Z,19.70
2019-05-14T10:31:09.173Z,18.90
2019-05-14T10:33:38.456Z,18.10
2019-05-14T10:36:09.439Z,18.30
2019-05-14T10:38:40.180Z,18.70
2019-05-14T10:41:12.607Z,18.30
2019-05-14T10:43:43.471Z,17.90
2019-05-14T10:46:14.579Z,17.60
2019-05-14T10:48:45.859Z,17.00
2019-05-14T10:51:18.996Z,16.60
2019-05-14T10:53:49.851Z,16.80
2019-05-14T10:56:21.743Z,16.60
2019-05-14T10:58:54.703Z,16.50
2019-05-14T11:01:25.414Z,16.30
2019-05-14T11:03:56.155Z,15.90
2019-05-14T11:06:29.112Z,16.50
2019-05-14T11:08:59.302Z,16.90
2019-05-14T11:11:31.417Z,17.20
2019-05-14T11:14:02.308Z,17.00
2019-05-14T11:16:33.242Z,16.50
2019-05-14T11:19:04.064Z,15.90
2019-05-14T11:21:35.015Z,15.20
2019-05-14T11:24:05.921Z,14.70
2019-05-14T11:26:39.188Z,14.90
2019-05-14T11:29:09.271Z,14.60
2019-05-14T11:31:41.533Z,14.50
2019-05-14T11:34:12.331Z,14.70
2019-05-14T11:36:43.044Z,15.10
2019-05-14T11:39:13.817Z,15.30
2019-05-14T11:41:44.637Z,15.40
2019-05-14T11:44:15.316Z,18.00
2019-05-14T11:46:52.510Z,19.40
2019-05-14T11:49:19.427Z,18.50
2019-05-14T11:52:06.817Z,17.00
2019-05-14T11:54:23.866Z,16.10
2019-05-14T11:56:54.790Z,15.90
2019-05-14T11:59:25.711Z,15.60
2019-05-14T12:01:59.299Z,15.30
2019-05-14T12:04:30.418Z,15.10
2019-05-14T12:07:01.218Z,15.40
2019-05-14T12:09:31.959Z,15.90
2019-05-14T12:12:03.936Z,16.10
2019-05-14T12:14:34.949Z,16.30
2019-05-14T12:17:09.308Z,16.10
2019-05-14T12:19:43.268Z,16.40
2019-05-14T12:22:12.378Z,16.60
2019-05-14T12:24:43.226Z,17.30
2019-05-14T12:27:14.085Z,19.30
2019-05-14T12:29:44.984Z,18.80
2019-05-14T12:32:18.710Z,18.30
2019-05-14T12:34:48.848Z,17.90
2019-05-14T12:37:21.076Z,17.60
2019-05-14T12:39:51.908Z,17.40
2019-05-14T12:42:22.846Z,17.40
2019-05-14T12:44:53.682Z,17.90
2019-05-14T12:47:24.620Z,20.90
2019-05-14T12:49:55.344Z,21.60
2019-05-14T12:52:26.381Z,19.90
2019-05-14T12:54:59.741Z,19.10
2019-05-14T12:57:30.143Z,18.20
2019-05-14T13:00:01.068Z,17.60
2019-05-14T13:02:31.896Z,17.60
2019-05-14T13:05:03.333Z,17.20
2019-05-14T13:07:35.429Z,17.50
2019-05-14T13:10:09.200Z,17.60
2019-05-14T13:12:40.213Z,17.40
2019-05-14T13:15:12.177Z,18.40
2019-05-14T13:17:44.358Z,19.60
2019-05-14T13:20:18.368Z,19.10
2019-05-14T13:22:50.247Z,20.70
2019-05-14T13:25:20.971Z,22.00
2019-05-14T13:27:53.085Z,22.60
2019-05-14T13:30:23.955Z,23.40
2019-05-14T13:32:59.085Z,21.80
2019-05-14T13:35:29.336Z,20.10
2019-05-14T13:38:01.811Z,18.60
2019-05-14T13:40:32.710Z,17.70
2019-05-14T13:43:03.564Z,17.30
2019-05-14T13:45:34.389Z,17.60
2019-05-14T13:48:05.358Z,17.80
2019-05-14T13:50:39.497Z,18.90
2019-05-14T13:53:12.899Z,20.30
2019-05-14T13:55:46.172Z,19.10
2019-05-14T13:58:13.924Z,19.10
2019-05-14T14:00:45.181Z,18.60
2019-05-14T14:03:19.695Z,18.60
2019-05-14T14:05:50.084Z,17.60
2019-05-14T14:08:21.288Z,16.70
2019-05-14T14:10:54.140Z,16.40
2019-05-14T14:13:28.535Z,16.50
2019-05-14T14:15:58.954Z,16.70
2019-05-14T14:18:30.033Z,17.40
2019-05-14T14:21:00.832Z,16.80
2019-05-14T14:23:31.800Z,18.60
2019-05-14T14:26:02.743Z,19.90
2019-05-14T14:28:33.645Z,20.10
2019-05-14T14:31:07.434Z,19.20
2019-05-14T14:33:39.132Z,18.50
2019-05-14T14:36:09.442Z,17.10
2019-05-14T14:38:43.357Z,17.10
2019-05-14T14:41:14.178Z,18.50
2019-05-14T14:43:45.035Z,19.20
2019-05-14T14:46:15.958Z,20.20
2019-05-14T14:48:49.440Z,20.30
2019-05-14T14:51:20.497Z,19.60
2019-05-14T14:53:59.794Z,18.70
2019-05-14T14:56:23.686Z,17.00
2019-05-14T14:58:54.571Z,17.00
2019-05-14T15:01:25.363Z,17.60
2019-05-14T15:03:56.196Z,18.20
2019-05-14T15:06:30.355Z,18.60
2019-05-14T15:08:59.443Z,18.70
2019-05-14T15:11:30.262Z,17.70
2019-05-14T15:14:02.026Z,17.00
2019-05-14T15:16:34.077Z,16.60
2019-05-14T15:19:05.032Z,15.90
2019-05-14T15:21:37.274Z,15.70
2019-05-14T15:24:14.752Z,15.30
2019-05-14T15:26:40.519Z,15.00
2019-05-14T15:29:11.548Z,15.40
2019-05-14T15:31:42.950Z,15.80
2019-05-14T15:34:14.042Z,16.40
2019-05-14T15:36:49.339Z,17.10
2019-05-14T15:39:22.412Z,17.80
2019-05-14T15:41:52.047Z,17.90
2019-05-14T15:44:24.278Z,17.70
2019-05-14T15:46:58.756Z,17.60
2019-05-14T15:49:29.650Z,16.80
2019-05-14T15:52:00.625Z,15.90
2019-05-14T15:54:42.204Z,16.00
2019-05-14T15:57:04.358Z,16.20
2019-05-14T15:59:35.809Z,16.50
2019-05-14T16:02:09.337Z,16.90
2019-05-14T16:04:40.554Z,17.10
2019-05-14T16:07:12.748Z,16.40
2019-05-14T16:09:45.076Z,15.90
2019-05-14T16:12:16.229Z,15.70
2019-05-14T16:14:49.642Z,15.20
2019-05-14T16:17:24.868Z,15.30
2019-05-14T16:19:55.116Z,15.20
2019-05-14T16:22:29.170Z,15.60
2019-05-14T16:25:01.051Z,15.50
2019-05-14T16:27:35.034Z,15.90
2019-05-14T16:30:09.974Z,15.70
2019-05-14T16:32:41.389Z,15.70
2019-05-14T16:35:12.853Z,15.70
2019-05-14T16:37:45.058Z,15.40
2019-05-14T16:40:19.030Z,15.20
2019-05-14T16:42:49.120Z,14.90
2019-05-14T16:45:20.884Z,14.60
2019-05-14T16:47:54.285Z,14.40
2019-05-14T16:50:25.622Z,14.20
2019-05-14T16:52:58.975Z,14.10
2019-05-14T16:55:30.617Z,13.90
2019-05-14T16:58:02.044Z,13.70
2019-05-14T17:00:34.808Z,14.00
2019-05-14T17:03:08.175Z,13.90
2019-05-14T17:05:39.158Z,14.00
2019-05-14T17:08:10.352Z,14.00
2019-05-14T17:10:41.288Z,14.10
2019-05-14T17:13:12.944Z,13.60
2019-05-14T17:15:43.851Z,13.40
2019-05-14T17:18:15.581Z,13.40
2019-05-14T17:20:48.679Z,13.50
2019-05-14T17:23:19.296Z,13.50
2019-05-14T17:25:51.286Z,13.40
2019-05-14T17:28:22.565Z,13.10
2019-05-14T17:30:53.893Z,12.80
2019-05-14T17:33:24.794Z,12.80
2019-05-14T17:35:58.664Z,12.60
2019-05-14T17:38:29.489Z,12.60
2019-05-14T17:41:02.549Z,12.40
2019-05-14T17:43:34.480Z,12.20
2019-05-14T17:46:09.474Z,12.20
2019-05-14T17:48:41.018Z,11.90
2019-05-14T17:51:13.577Z,11.80
2019-05-14T17:53:48.081Z,11.50
2019-05-14T17:56:22.874Z,11.60
2019-05-14T17:58:57.970Z,11.40
2019-05-14T18:01:31.274Z,11.10
2019-05-14T18:04:04.740Z,11.10
2019-05-14T18:06:36.532Z,10.80
2019-05-14T18:09:09.157Z,10.80
2019-05-14T18:11:42.233Z,10.60
2019-05-14T18:14:15.390Z,10.40
2019-05-14T18:16:47.202Z,10.30
2019-05-14T18:19:19.950Z,10.10
2019-05-14T18:21:52.842Z,10.20
2019-05-14T18:24:28.536Z,10.10
2019-05-14T18:27:01.690Z,10.00
2019-05-14T18:29:38.943Z,9.80
2019-05-14T18:32:10.711Z,9.70
2019-05-14T18:34:42.348Z,9.70
2019-05-14T18:37:18.073Z,9.60
2019-05-14T18:39:50.546Z,9.60
2019-05-14T18:42:29.670Z,9.40
2019-05-14T18:45:04.062Z,9.40
2019-05-14T18:47:41.278Z,9.20
2019-05-14T18:50:19.355Z,9.10
2019-05-14T18:52:52.719Z,9.00
2019-05-14T18:55:29.572Z,8.90
2019-05-14T18:58:03.455Z,8.90
2019-05-14T19:00:39.791Z,8.80
2019-05-14T19:03:14.316Z,8.70
2019-05-14T19:05:48.220Z,8.70
2019-05-14T19:08:21.042Z,8.60
2019-05-14T19:10:53.462Z,8.50
2019-05-14T19:13:28.158Z,8.40
2019-05-14T19:16:01.733Z,8.30
2019-05-14T19:18:33.762Z,8.10
2019-05-14T19:21:05.027Z,8.10
2019-05-14T19:23:38.513Z,8.00
2019-05-14T19:26:13.396Z,7.90
2019-05-14T19:28:48.376Z,7.90
2019-05-14T19:31:19.037Z,7.70
2019-05-14T19:33:49.999Z,7.60
2019-05-14T19:36:22.476Z,7.50
2019-05-14T19:38:53.309Z,7.40
2019-05-14T19:41:24.152Z,7.40
2019-05-14T19:43:54.981Z,7.40
2019-05-14T19:46:25.834Z,7.40
2019-05-14T19:48:59.090Z,7.30
2019-05-14T19:51:30.662Z,7.20
2019-05-14T19:54:01.575Z,7.30
2019-05-14T19:56:47.090Z,7.20
2019-05-14T19:59:08.874Z,7.10
2019-05-14T20:01:38.775Z,7.00
2019-05-14T20:04:09.739Z,6.90
2019-05-14T20:06:44.266Z,6.80
2019-05-14T20:09:17.762Z,6.70
2019-05-14T20:11:49.123Z,6.60
2019-05-14T20:14:20.245Z,6.50
2019-05-14T20:16:52.812Z,6.50
2019-05-14T20:19:23.687Z,6.40
2019-05-14T20:21:54.410Z,6.40
2019-05-14T20:24:25.550Z,6.40
2019-05-14T20:27:05.895Z,6.30
2019-05-14T20:29:29.233Z,6.50
2019-05-14T20:32:01.849Z,6.40
2019-05-14T20:34:36.012Z,6.30
2019-05-14T20:37:08.470Z,6.20
2019-05-14T20:39:39.428Z,6.20
2019-05-14T20:42:10.150Z,6.10
2019-05-14T20:44:41.101Z,6.10
2019-05-14T20:49:43.446Z,6.00
2019-05-14T20:52:14.260Z,5.90
2019-05-14T20:54:45.011Z,5.90
2019-05-14T20:57:24.418Z,5.80
2019-05-14T20:59:48.336Z,5.70
2019-05-14T21:02:19.250Z,5.60
2019-05-14T21:04:54.520Z,5.50
2019-05-14T21:07:22.767Z,5.50
2019-05-14T21:09:53.800Z,5.40
2019-05-14T21:12:24.648Z,5.40
2019-05-14T21:14:55.676Z,5.30
2019-05-14T21:17:28.864Z,5.20
2019-05-14T21:19:59.654Z,5.20
2019-05-14T21:22:30.535Z,5.30
2019-05-14T21:25:01.578Z,5.10
2019-05-14T21:27:43.868Z,5.10
2019-05-14T21:30:09.106Z,5.00
2019-05-14T21:32:42.450Z,5.00
2019-05-14T21:35:11.925Z,5.00
2019-05-14T21:37:42.931Z,5.00
2019-05-14T21:40:14.718Z,4.90
2019-05-14T21:42:45.612Z,4.70
2019-05-14T21:45:18.100Z,4.60
2019-05-14T21:47:50.150Z,4.60
2019-05-14T21:52:51.327Z,4.40
2019-05-14T21:55:22.249Z,4.20
2019-05-14T21:57:57.257Z,4.20
2019-05-14T22:00:34.877Z,4.20
2019-05-14T22:03:10.154Z,4.10
2019-05-14T22:05:39.927Z,4.00
2019-05-14T22:08:12.195Z,3.80
2019-05-14T22:10:43.130Z,3.70
2019-05-14T22:13:13.891Z,3.60
2019-05-14T22:15:44.858Z,3.70
2019-05-14T22:18:20.521Z,3.80
2019-05-14T22:20:50.813Z,3.90
2019-05-14T22:23:21.737Z,3.80
2019-05-14T22:25:52.634Z,3.80
2019-05-14T22:28:23.481Z,3.80
2019-05-14T22:30:54.422Z,3.70
2019-05-14T22:33:25.312Z,3.60
2019-05-14T22:35:57.921Z,3.60
2019-05-14T22:38:29.302Z,3.60
2019-05-14T22:41:00.580Z,3.50
2019-05-14T22:43:31.568Z,3.50
2019-05-14T22:46:02.503Z,3.50
2019-05-14T22:48:33.442Z,3.40
2019-05-14T22:51:04.948Z,3.40
2019-05-14T22:53:36.009Z,3.40
2019-05-14T22:56:08.343Z,3.30
2019-05-14T22:58:43.365Z,3.20
2019-05-14T23:01:15.362Z,3.20
2019-05-14T23:03:48.720Z,3.30
2019-05-14T23:06:19.738Z,3.20
2019-05-14T23:08:50.858Z,3.20
2019-05-14T23:11:22.416Z,3.10
2019-05-14T23:13:53.674Z,3.20
2019-05-14T23:16:34.458Z,3.10
2019-05-14T23:18:59.136Z,3.00
2019-05-14T23:21:30.279Z,3.00
2019-05-14T23:24:01.724Z,2.90
2019-05-14T23:26:34.399Z,2.80
2019-05-14T23:29:05.953Z,2.90
2019-05-14T23:31:38.499Z,2.90
2019-05-14T23:34:10.426Z,2.90
2019-05-14T23:36:44.725Z,2.80
2019-05-14T23:39:16.360Z,2.80
2019-05-14T23:41:48.780Z,2.70
2019-05-14T23:44:20.076Z,2.70
2019-05-14T23:46:53.530Z,2.60
2019-05-14T23:49:24.599Z,2.50
2019-05-14T23:51:55.452Z,2.60
2019-05-14T23:54:26.288Z,2.50
2019-05-14T23:56:58.401Z,2.40
2019-05-14T23:59:29.438Z,2.40
